Time;durP1;ratioP1;P1;durP2;ratioP2;P2;SDS_P1;SDS_P2;PMS_P1;PMS_P2;Temp;Humidity;BMP_temperature;BMP_pressure;BME280_temperature;BME280_humidity;BME280_pressure;Samples;Min_cycle;Max_cycle;Signal;HPM_P1;HPM_P2
2021/05/13 00:02:17;;;;;;;11.50;3.40;;;10.30;99.90;;;;;;5093603;28;20028;-74
2021/05/13 00:04:42;;;;;;;5.72;2.15;;;10.40;99.90;;;;;;5094963;28;20030;-75
2021/05/13 00:07:08;;;;;;;5.80;2.40;;;10.30;99.90;;;;;;5094450;28;20041;-75
2021/05/13 00:09:34;;;;;;;3.63;1.58;;;10.30;99.90;;;;;;5093346;28;20031;-74
2021/05/13 00:12:03;;;;;;;4.68;2.00;;;10.30;99.90;;;;;;5093686;28;20024;-74
2021/05/13 00:14:28;;;;;;;6.38;1.90;;;10.30;99.90;;;;;;5093923;28;20479;-75
2021/05/13 00:16:54;;;;;;;5.55;2.00;;;10.30;99.90;;;;;;5094832;28;20020;-75
2021/05/13 00:19:21;;;;;;;7.85;2.22;;;10.30;99.90;;;;;;5093644;28;20028;-75
2021/05/13 00:21:47;;;;;;;5.63;2.35;;;10.30;99.90;;;;;;5094169;28;20032;-75
2021/05/13 00:24:14;;;;;;;2.92;1.45;;;10.30;99.90;;;;;;5092319;28;20028;-75
2021/05/13 00:26:48;;;;;;;5.00;2.30;;;10.30;99.90;;;;;;5094051;28;20107;-75
2021/05/13 00:29:16;;;;;;;3.25;1.60;;;10.30;99.90;;;;;;5093972;28;20028;-75
2021/05/13 00:31:43;;;;;;;4.22;1.90;;;10.20;99.90;;;;;;5094181;28;20374;-76
2021/05/13 00:34:10;;;;;;;2.47;1.73;;;10.30;99.90;;;;;;5093674;28;20032;-74
2021/05/13 00:36:38;;;;;;;3.47;1.63;;;10.20;99.90;;;;;;5094161;28;20032;-76
2021/05/13 00:39:05;;;;;;;3.22;1.80;;;10.20;99.90;;;;;;5093437;28;20085;-69
2021/05/13 00:41:31;;;;;;;2.83;1.73;;;10.20;99.90;;;;;;5089398;28;20062;-74
2021/05/13 00:43:57;;;;;;;2.45;1.30;;;10.20;99.90;;;;;;5092385;28;20024;-75
2021/05/13 00:46:23;;;;;;;3.08;1.52;;;10.20;99.90;;;;;;5093280;28;20847;-75
2021/05/13 00:48:50;;;;;;;6.68;1.90;;;10.10;99.90;;;;;;5093963;28;20342;-74
2021/05/13 00:51:16;;;;;;;2.55;1.90;;;10.10;99.90;;;;;;5092995;28;20032;-74
2021/05/13 00:53:47;;;;;;;7.22;2.60;;;10.10;99.90;;;;;;5093377;28;20393;-75
2021/05/13 00:56:14;;;;;;;6.47;2.22;;;10.10;99.90;;;;;;5093667;28;20062;-74
2021/05/13 00:58:44;;;;;;;5.03;2.55;;;10.10;99.90;;;;;;5088276;28;20052;-76
2021/05/13 01:01:15;;;;;;;7.47;2.20;;;10.20;99.90;;;;;;5072646;28;20051;-75
2021/05/13 01:03:41;;;;;;;2.88;1.88;;;10.10;99.90;;;;;;5073422;28;20023;-76
2021/05/13 01:06:12;;;;;;;5.97;2.08;;;10.10;99.90;;;;;;5072657;28;20029;-70
2021/05/13 01:08:38;;;;;;;1.98;1.65;;;10.10;99.90;;;;;;5054360;28;20020;-75
2021/05/13 01:11:04;;;;;;;4.97;1.98;;;10.10;99.90;;;;;;5055336;28;20381;-74
2021/05/13 01:13:33;;;;;;;2.38;1.73;;;10.10;99.90;;;;;;5073312;28;20031;-74
2021/05/13 01:18:30;;;;;;;3.28;1.90;;;10.00;99.90;;;;;;5075656;28;20040;-75
2021/05/13 01:20:56;;;;;;;3.35;1.58;;;10.00;99.90;;;;;;5074158;28;20032;-75
2021/05/13 01:23:22;;;;;;;6.22;2.35;;;10.00;99.90;;;;;;5072241;28;20036;-74
2021/05/13 01:25:57;;;;;;;3.22;2.10;;;10.10;99.90;;;;;;5072526;28;20033;-75
2021/05/13 01:28:24;;;;;;;6.05;2.53;;;10.10;99.90;;;;;;5055520;28;20078;-75
2021/05/13 01:30:51;;;;;;;3.75;2.20;;;10.10;99.90;;;;;;5082059;28;20094;-75
2021/05/13 01:33:19;;;;;;;3.60;2.78;;;10.10;99.90;;;;;;5071985;28;20024;-74
2021/05/13 01:35:45;;;;;;;5.85;3.10;;;10.10;99.90;;;;;;5069276;28;20040;-75
2021/05/13 01:38:14;;;;;;;5.72;3.00;;;10.10;99.90;;;;;;5065158;28;20074;-75
2021/05/13 01:40:48;;;;;;;8.90;3.45;;;10.10;99.90;;;;;;5072590;28;20060;-74
2021/05/13 01:43:14;;;;;;;6.72;3.13;;;10.10;99.90;;;;;;5072016;28;20025;-75
2021/05/13 01:45:41;;;;;;;5.30;2.67;;;10.10;99.90;;;;;;5054756;28;20074;-76
2021/05/13 01:48:07;;;;;;;6.78;3.13;;;10.10;99.90;;;;;;5072057;28;20104;-70
2021/05/13 01:50:34;;;;;;;6.63;2.92;;;10.10;99.90;;;;;;5072241;28;20024;-76
2021/05/13 01:53:02;;;;;;;4.00;2.50;;;10.10;99.90;;;;;;5072130;28;20032;-76
2021/05/13 01:55:28;;;;;;;5.43;2.97;;;10.10;99.90;;;;;;5053499;28;20020;-72
2021/05/13 01:57:54;;;;;;;4.45;2.30;;;10.00;99.90;;;;;;5054451;28;20051;-73
2021/05/13 02:00:20;;;;;;;6.30;2.55;;;10.00;99.90;;;;;;5071197;28;20129;-76
2021/05/13 02:02:48;;;;;;;5.85;2.58;;;10.00;99.90;;;;;;5054687;28;20465;-76
2021/05/13 02:05:15;;;;;;;4.20;2.33;;;10.00;99.90;;;;;;5071013;28;20090;-76
2021/05/13 02:07:41;;;;;;;3.28;2.13;;;10.00;99.90;;;;;;5054127;28;20046;-76
2021/05/13 02:10:07;;;;;;;6.25;2.92;;;10.00;99.90;;;;;;5072088;28;20103;-70
2021/05/13 02:12:33;;;;;;;7.10;3.22;;;9.90;99.90;;;;;;5071635;28;20119;-77
2021/05/13 02:14:58;;;;;;;4.05;2.60;;;9.90;99.90;;;;;;5072149;28;20528;-76
2021/05/13 02:17:24;;;;;;;7.32;3.25;;;9.90;99.90;;;;;;5071337;28;20025;-77
2021/05/13 02:19:50;;;;;;;5.15;3.22;;;9.90;99.90;;;;;;5054167;28;20127;-77
2021/05/13 02:22:15;;;;;;;5.88;3.30;;;9.90;99.90;;;;;;5069736;28;20470;-76
2021/05/13 02:24:41;;;;;;;5.38;3.00;;;9.80;99.90;;;;;;5054701;28;20031;-77
2021/05/13 02:27:07;;;;;;;5.20;3.00;;;9.80;99.90;;;;;;5070900;28;20382;-71
2021/05/13 02:29:32;;;;;;;5.28;2.22;;;9.80;99.90;;;;;;5053568;28;20031;-76
2021/05/13 02:31:58;;;;;;;5.65;2.85;;;9.80;99.90;;;;;;5048355;28;20109;-76
2021/05/13 02:34:24;;;;;;;4.07;2.70;;;9.70;99.90;;;;;;5052796;28;20060;-77
2021/05/13 02:36:49;;;;;;;5.63;2.60;;;9.70;99.90;;;;;;5052719;28;20032;-76
2021/05/13 02:39:15;;;;;;;5.18;2.83;;;9.80;99.90;;;;;;5053272;28;20028;-77
2021/05/13 02:41:43;;;;;;;3.03;2.30;;;9.70;99.90;;;;;;5053554;28;20401;-77
2021/05/13 02:44:09;;;;;;;3.63;2.50;;;9.70;99.90;;;;;;5071437;28;20052;-68
2021/05/13 02:46:35;;;;;;;6.65;2.85;;;9.80;99.90;;;;;;5071515;28;20037;-76
2021/05/13 02:49:01;;;;;;;7.28;2.60;;;9.80;99.90;;;;;;5053732;28;20090;-76
2021/05/13 02:51:26;;;;;;;12.13;3.92;;;9.80;99.90;;;;;;5052650;28;20036;-76
2021/05/13 02:53:53;;;;;;;6.93;4.28;;;9.90;99.90;;;;;;5072824;28;20033;-76
2021/05/13 02:56:18;;;;;;;5.28;4.00;;;9.90;99.90;;;;;;5070781;28;20078;-76
2021/05/13 02:58:46;;;;;;;5.22;4.03;;;9.90;99.90;;;;;;5071253;28;20124;-74
2021/05/13 03:01:31;;;;;;;8.00;4.82;;;9.80;99.90;;;;;;5070858;28;20124;-75
2021/05/13 03:03:58;;;;;;;8.02;4.72;;;9.80;99.90;;;;;;5070918;28;20066;-76
2021/05/13 03:06:26;;;;;;;7.35;4.38;;;9.70;99.90;;;;;;5070496;28;20020;-77
2021/05/13 03:08:55;;;;;;;7.22;4.82;;;9.70;99.90;;;;;;5071223;28;20028;-77
2021/05/13 03:11:26;;;;;;;5.78;3.63;;;9.70;99.90;;;;;;5070871;28;20058;-77
2021/05/13 03:13:54;;;;;;;6.30;3.85;;;9.60;99.90;;;;;;5071509;28;20028;-76
2021/05/13 03:16:20;;;;;;;7.00;4.53;;;9.60;99.90;;;;;;5044551;28;20074;-76
2021/05/13 03:18:51;;;;;;;4.57;3.67;;;9.60;99.90;;;;;;5071257;28;20025;-75
2021/05/13 03:24:05;;;;;;;5.90;3.85;;;9.60;99.90;;;;;;5069201;28;20051;-76
2021/05/13 03:28:56;;;;;;;7.47;4.28;;;9.60;99.90;;;;;;5071042;28;20021;-77
2021/05/13 03:31:23;;;;;;;7.63;4.35;;;9.60;99.90;;;;;;5052375;28;20154;-77
2021/05/13 03:33:49;;;;;;;8.55;3.75;;;9.60;99.90;;;;;;5074359;28;20036;-76
2021/05/13 03:36:14;;;;;;;5.20;3.42;;;9.60;99.90;;;;;;5074097;28;20036;-77
2021/05/13 03:38:40;;;;;;;9.65;3.88;;;9.60;99.90;;;;;;5074887;28;20031;-73
2021/05/13 03:41:06;;;;;;;10.23;4.32;;;9.60;99.90;;;;;;5074617;28;20116;-74
2021/05/13 03:43:31;;;;;;;7.15;4.00;;;9.70;99.90;;;;;;5074407;28;20146;-76
2021/05/13 03:45:57;;;;;;;9.60;4.32;;;9.70;99.90;;;;;;5074788;28;20021;-76
2021/05/13 03:48:22;;;;;;;7.20;4.55;;;9.70;99.90;;;;;;5056085;28;20025;-76
2021/05/13 03:50:48;;;;;;;4.95;3.85;;;9.70;99.90;;;;;;5056972;28;20028;-76
2021/05/13 03:53:14;;;;;;;9.80;4.35;;;9.70;99.90;;;;;;5073422;28;20527;-76
2021/05/13 03:55:39;;;;;;;7.93;4.28;;;9.70;99.90;;;;;;5074543;28;20427;-77
2021/05/13 03:58:08;;;;;;;8.65;4.95;;;9.60;99.90;;;;;;5056574;28;20032;-77
2021/05/13 04:01:00;;;;;;;8.68;4.50;;;9.60;99.90;;;;;;5073355;28;20047;-77
2021/05/13 04:03:26;;;;;;;9.98;4.50;;;9.60;99.90;;;;;;5073919;28;20114;-74
2021/05/13 04:05:52;;;;;;;7.28;4.32;;;9.60;99.90;;;;;;5074110;28;20048;-77
2021/05/13 04:08:19;;;;;;;5.85;4.22;;;9.60;99.90;;;;;;5073399;28;20516;-76
2021/05/13 04:10:44;;;;;;;6.43;3.42;;;9.60;99.90;;;;;;5074427;28;20082;-76
2021/05/13 04:13:12;;;;;;;5.43;3.28;;;9.60;99.90;;;;;;5073934;28;20033;-67
2021/05/13 04:15:42;;;;;;;8.48;3.67;;;9.60;99.90;;;;;;5074598;28;20032;-76
2021/05/13 04:18:07;;;;;;;5.22;3.08;;;9.60;99.90;;;;;;5049199;28;20033;-76
2021/05/13 04:20:33;;;;;;;7.75;3.65;;;9.60;99.90;;;;;;5053494;28;20033;-77
2021/05/13 04:22:58;;;;;;;5.43;3.08;;;9.60;99.90;;;;;;5074627;28;20031;-77
2021/05/13 04:25:24;;;;;;;5.45;3.40;;;9.60;99.90;;;;;;5073263;28;20081;-76
2021/05/13 04:27:50;;;;;;;5.03;2.78;;;9.60;99.90;;;;;;5073817;28;20097;-77
2021/05/13 04:30:16;;;;;;;5.60;3.15;;;9.60;99.90;;;;;;5073612;28;20101;-76
2021/05/13 04:32:42;;;;;;;5.63;2.78;;;9.60;99.90;;;;;;5072718;28;20032;-76
2021/05/13 04:35:08;;;;;;;5.55;3.33;;;9.60;99.90;;;;;;5073540;28;20033;-75
2021/05/13 04:37:34;;;;;;;5.50;3.15;;;9.70;99.90;;;;;;5073282;28;20761;-76
2021/05/13 04:40:00;;;;;;;7.03;3.08;;;9.70;99.90;;;;;;5073454;28;20036;-76
2021/05/13 04:42:25;;;;;;;6.63;3.47;;;9.80;99.90;;;;;;5058550;28;20028;-77
2021/05/13 04:44:53;;;;;;;9.25;4.35;;;9.80;99.90;;;;;;5071118;28;20028;-76
2021/05/13 04:47:25;;;;;;;5.53;3.55;;;9.90;99.90;;;;;;5072980;28;20033;-76
2021/05/13 04:49:52;;;;;;;6.15;4.10;;;10.00;99.90;;;;;;5073454;28;20064;-77
2021/05/13 04:52:19;;;;;;;6.35;3.88;;;10.00;99.90;;;;;;5066279;28;20444;-75
2021/05/13 04:54:49;;;;;;;6.45;3.65;;;10.10;99.90;;;;;;5073492;28;20078;-75
2021/05/13 04:57:16;;;;;;;5.57;3.47;;;10.10;99.90;;;;;;5072678;28;20028;-73
2021/05/13 04:59:43;;;;;;;9.00;4.78;;;10.20;99.90;;;;;;5073297;28;20067;-72
2021/05/13 05:02:08;;;;;;;10.52;4.85;;;10.20;99.90;;;;;;5073200;28;20033;-75
2021/05/13 05:04:34;;;;;;;9.93;4.70;;;10.30;99.90;;;;;;5054777;28;20082;-74
2021/05/13 05:06:59;;;;;;;7.95;4.10;;;10.30;99.90;;;;;;5055638;28;20024;-74
2021/05/13 05:09:25;;;;;;;6.18;4.18;;;10.40;99.90;;;;;;5054836;28;20036;-74
2021/05/13 05:11:51;;;;;;;8.20;4.38;;;10.50;99.90;;;;;;5055470;28;21586;-75
2021/05/13 05:14:17;;;;;;;8.82;4.40;;;10.50;99.90;;;;;;5066162;28;20346;-75
2021/05/13 05:16:43;;;;;;;5.65;3.97;;;10.50;99.90;;;;;;5055245;28;20035;-75
2021/05/13 05:19:09;;;;;;;5.97;4.18;;;10.60;99.90;;;;;;5055272;28;20028;-75
2021/05/13 05:21:34;;;;;;;5.43;4.03;;;10.60;99.90;;;;;;5071658;28;20039;-75
2021/05/13 05:24:00;;;;;;;7.35;4.38;;;10.70;99.90;;;;;;5055373;28;20064;-75
2021/05/13 05:26:26;;;;;;;5.32;3.83;;;10.80;99.90;;;;;;5072479;28;20465;-75
2021/05/13 05:28:51;;;;;;;6.25;3.50;;;10.80;99.90;;;;;;5073126;28;20462;-75
2021/05/13 05:31:17;;;;;;;5.78;3.60;;;10.90;99.90;;;;;;5072536;28;20382;-73
2021/05/13 05:33:43;;;;;;;6.30;3.63;;;10.90;99.90;;;;;;5072785;28;20151;-75
2021/05/13 05:36:09;;;;;;;4.00;3.00;;;10.90;99.90;;;;;;5072741;28;20078;-76
2021/05/13 05:38:34;;;;;;;3.72;3.15;;;10.90;99.90;;;;;;5072061;28;20568;-75
2021/05/13 05:41:00;;;;;;;6.43;3.17;;;10.90;99.90;;;;;;5054772;28;20037;-76
2021/05/13 05:43:26;;;;;;;6.43;3.75;;;11.00;99.90;;;;;;5071955;28;20034;-76
2021/05/13 05:45:51;;;;;;;8.50;3.63;;;11.10;99.90;;;;;;5053543;28;20465;-75
2021/05/13 05:48:17;;;;;;;4.10;3.03;;;11.30;99.90;;;;;;5054256;28;20029;-74
2021/05/13 05:50:43;;;;;;;5.82;3.17;;;11.30;99.90;;;;;;5072554;28;20024;-72
2021/05/13 05:53:10;;;;;;;5.20;3.05;;;11.50;99.90;;;;;;5054542;28;20124;-77
2021/05/13 05:55:38;;;;;;;5.70;3.63;;;11.60;99.90;;;;;;5071330;28;20496;-75
2021/05/13 05:58:03;;;;;;;5.55;3.42;;;11.70;99.90;;;;;;5072717;28;20063;-77
2021/05/13 06:00:29;;;;;;;6.25;3.05;;;11.90;99.90;;;;;;5089610;28;20080;-76
2021/05/13 06:02:55;;;;;;;4.90;2.92;;;12.00;99.90;;;;;;5092608;28;20078;-76
2021/05/13 06:05:21;;;;;;;4.35;2.70;;;12.10;99.00;;;;;;5091368;28;20028;-76
2021/05/13 06:07:47;;;;;;;6.90;2.90;;;12.20;97.30;;;;;;5080926;28;20086;-76
2021/05/13 06:10:14;;;;;;;7.07;3.08;;;12.30;96.60;;;;;;5092190;28;20530;-69
2021/05/13 06:12:41;;;;;;;7.70;3.10;;;12.40;96.20;;;;;;5092212;28;20081;-76
2021/05/13 06:15:13;;;;;;;6.38;2.85;;;12.60;95.40;;;;;;5090491;28;20031;-76
2021/05/13 06:17:40;;;;;;;7.07;3.20;;;12.70;94.90;;;;;;5089046;28;20028;-76
2021/05/13 06:20:08;;;;;;;11.30;3.67;;;12.80;93.80;;;;;;5091223;28;20473;-76
2021/05/13 06:22:34;;;;;;;5.75;2.78;;;12.90;93.10;;;;;;5089544;28;20020;-73
2021/05/13 06:25:00;;;;;;;6.05;2.90;;;13.00;92.50;;;;;;5090139;28;20024;-75
2021/05/13 06:27:26;;;;;;;6.22;2.78;;;13.00;91.20;;;;;;5090321;28;20433;-74
2021/05/13 06:29:52;;;;;;;4.68;2.33;;;13.10;91.60;;;;;;5086543;28;20032;-74
2021/05/13 06:32:18;;;;;;;5.88;2.33;;;13.10;90.60;;;;;;5083442;28;20024;-75
2021/05/13 06:34:44;;;;;;;5.82;2.42;;;13.20;90.50;;;;;;5090414;28;20031;-76
2021/05/13 06:37:10;;;;;;;5.80;2.30;;;13.30;88.50;;;;;;5084542;28;20028;-76
2021/05/13 06:39:36;;;;;;;4.25;2.10;;;13.40;86.40;;;;;;5086650;28;20803;-76
2021/05/13 06:42:04;;;;;;;5.25;2.05;;;13.50;85.60;;;;;;5087818;28;20020;-76
2021/05/13 06:44:29;;;;;;;6.82;3.95;;;13.60;84.40;;;;;;5069612;28;20032;-76
2021/05/13 06:46:55;;;;;;;7.63;4.55;;;13.60;90.30;;;;;;5084821;28;20035;-76
2021/05/13 06:49:21;;;;;;;8.75;4.40;;;13.80;92.50;;;;;;5085552;28;20034;-77
2021/05/13 06:51:47;;;;;;;8.32;4.35;;;13.80;92.80;;;;;;5087697;28;20492;-75
2021/05/13 06:54:13;;;;;;;9.15;4.80;;;13.90;92.60;;;;;;5087139;28;20123;-69
2021/05/13 06:56:40;;;;;;;10.88;4.90;;;13.90;93.20;;;;;;5089994;28;20040;-75
2021/05/13 06:59:07;;;;;;;8.85;3.95;;;14.00;93.20;;;;;;5082018;28;20080;-76
2021/05/13 07:01:34;;;;;;;9.02;4.53;;;14.00;92.60;;;;;;5066109;28;20047;-75
2021/05/13 07:03:59;;;;;;;7.65;3.72;;;14.00;92.30;;;;;;5067346;28;20041;-75
2021/05/13 07:06:25;;;;;;;6.30;3.33;;;14.10;92.10;;;;;;5070924;28;20058;-75
2021/05/13 07:08:51;;;;;;;9.35;4.18;;;14.20;91.00;;;;;;5070229;28;20507;-76
2021/05/13 07:11:16;;;;;;;7.35;4.22;;;14.30;91.10;;;;;;5051445;28;20056;-70
2021/05/13 07:13:42;;;;;;;5.80;3.72;;;14.40;90.20;;;;;;5070447;28;20020;-76
2021/05/13 07:16:08;;;;;;;7.70;3.15;;;14.50;88.40;;;;;;5052127;28;20401;-76
2021/05/13 07:18:33;;;;;;;6.30;2.97;;;14.30;87.60;;;;;;5069262;28;20032;-76
2021/05/13 07:20:59;;;;;;;5.10;2.72;;;14.30;84.90;;;;;;5067534;28;20447;-76
2021/05/13 07:23:25;;;;;;;3.92;2.70;;;14.20;86.00;;;;;;5069540;28;20466;-76
2021/05/13 07:25:52;;;;;;;7.80;2.97;;;14.10;86.70;;;;;;5070314;28;20218;-76
2021/05/13 07:28:18;;;;;;;3.90;2.63;;;14.10;87.30;;;;;;5069022;28;20021;-75
2021/05/13 07:30:44;;;;;;;3.38;2.17;;;14.00;88.00;;;;;;5052253;28;20085;-76
2021/05/13 07:33:10;;;;;;;2.70;1.83;;;13.90;86.50;;;;;;5051523;28;20037;-76
2021/05/13 07:35:36;;;;;;;3.83;2.28;;;13.80;86.70;;;;;;5068740;28;20020;-76
2021/05/13 07:38:02;;;;;;;5.72;1.92;;;13.70;86.30;;;;;;5069666;28;20075;-76
2021/05/13 07:40:28;;;;;;;3.40;1.58;;;13.70;86.10;;;;;;5069501;28;20037;-75
2021/05/13 07:42:55;;;;;;;5.50;2.28;;;13.60;85.40;;;;;;5051980;28;20033;-74
2021/05/13 07:45:21;;;;;;;2.13;1.40;;;13.50;85.10;;;;;;5051144;28;20036;-75
2021/05/13 07:47:48;;;;;;;4.25;1.77;;;13.40;84.80;;;;;;5069775;28;20115;-75
2021/05/13 07:50:19;;;;;;;2.92;1.80;;;13.40;84.80;;;;;;5070113;28;20086;-70
2021/05/13 07:52:46;;;;;;;3.50;1.88;;;13.50;84.50;;;;;;5069394;28;20610;-76
2021/05/13 07:55:12;;;;;;;5.97;2.58;;;13.70;84.30;;;;;;5066677;28;20024;-77
2021/05/13 07:57:38;;;;;;;3.45;1.90;;;14.00;82.60;;;;;;5051299;28;20037;-75
2021/05/13 08:00:07;;;;;;;3.85;1.88;;;14.30;80.00;;;;;;5069451;28;20063;-74
2021/05/13 08:02:32;;;;;;;4.82;1.55;;;14.60;78.20;;;;;;5064957;28;20044;-75
2021/05/13 08:04:58;;;;;;;3.85;2.55;;;14.80;76.30;;;;;;5047436;28;20036;-75
2021/05/13 08:07:24;;;;;;;3.70;2.58;;;14.90;77.00;;;;;;5045117;28;20028;-76
2021/05/13 08:09:50;;;;;;;5.68;2.05;;;14.80;78.00;;;;;;5049783;28;20082;-73
2021/05/13 08:12:17;;;;;;;4.53;2.13;;;14.70;77.20;;;;;;5048191;28;20024;-72
2021/05/13 08:14:44;;;;;;;3.78;1.52;;;14.70;76.60;;;;;;5068930;28;20036;-71
2021/05/13 08:17:10;;;;;;;2.85;1.48;;;14.70;76.70;;;;;;5048645;28;20522;-72
2021/05/13 08:19:36;;;;;;;3.92;1.48;;;14.70;77.20;;;;;;5066493;28;20025;-71
2021/05/13 08:22:02;;;;;;;6.28;2.00;;;14.70;77.10;;;;;;5070881;28;20043;-71
2021/05/13 08:24:28;;;;;;;4.72;2.00;;;14.70;77.20;;;;;;5072426;28;20071;-75
2021/05/13 08:26:54;;;;;;;2.80;2.30;;;14.70;76.30;;;;;;5070319;28;20495;-75
2021/05/13 08:29:20;;;;;;;3.90;1.50;;;14.90;74.80;;;;;;5069152;28;20033;-77
2021/05/13 08:31:46;;;;;;;4.30;1.90;;;15.20;73.30;;;;;;5070143;28;20029;-81
2021/05/13 08:34:11;;;;;;;3.22;1.83;;;15.50;73.60;;;;;;5069249;28;20444;-72
2021/05/13 08:36:37;;;;;;;4.45;2.28;;;16.00;74.30;;;;;;5069333;28;20150;-70
2021/05/13 08:39:03;;;;;;;4.05;1.77;;;16.40;71.00;;;;;;5052342;28;20363;-72
2021/05/13 08:41:29;;;;;;;4.05;1.90;;;16.70;68.20;;;;;;5066711;28;20106;-71
2021/05/13 08:43:54;;;;;;;4.95;2.20;;;17.00;66.90;;;;;;5070804;28;20021;-71
2021/05/13 08:46:21;;;;;;;3.38;1.40;;;17.20;64.70;;;;;;5072660;28;20028;-73
2021/05/13 08:48:48;;;;;;;3.63;1.55;;;17.30;65.60;;;;;;5054887;28;20055;-70
2021/05/13 08:51:14;;;;;;;3.78;1.40;;;17.50;64.10;;;;;;5066332;28;20101;-77
2021/05/13 08:53:52;;;;;;;7.68;1.95;;;17.60;62.80;;;;;;5055006;28;20028;-74
2021/05/13 08:56:18;;;;;;;5.60;1.77;;;17.60;62.90;;;;;;5035073;28;20033;-73
2021/05/13 08:58:44;;;;;;;3.35;1.70;;;17.60;61.10;;;;;;5062465;28;20045;-82
2021/05/13 09:01:18;;;;;;;3.30;1.70;;;17.30;61.90;;;;;;5093562;28;20055;-77
2021/05/13 09:03:46;;;;;;;3.70;1.95;;;17.10;63.90;;;;;;5093478;28;20384;-76
2021/05/13 09:06:33;;;;;;;4.68;1.83;;;16.80;62.60;;;;;;5093443;28;20020;-79
2021/05/13 09:09:19;;;;;;;4.07;1.80;;;16.60;63.80;;;;;;5090839;28;20024;-71
2021/05/13 09:11:51;;;;;;;4.18;2.00;;;16.40;64.20;;;;;;5092431;28;20035;-77
2021/05/13 09:14:22;;;;;;;3.08;1.42;;;16.40;64.70;;;;;;5093136;28;20058;-72
2021/05/13 09:16:49;;;;;;;4.40;1.42;;;16.50;64.80;;;;;;5093701;28;20031;-80
2021/05/13 09:19:39;;;;;;;2.33;1.15;;;16.80;64.00;;;;;;5085029;28;20038;-70
2021/05/13 09:22:08;;;;;;;3.97;1.30;;;17.30;63.20;;;;;;5093433;28;20028;-82
2021/05/13 09:24:55;;;;;;;3.20;1.40;;;17.60;59.80;;;;;;5092177;28;20032;-82
2021/05/13 09:27:33;;;;;;;3.60;1.67;;;17.70;60.10;;;;;;5091143;28;20472;-83
2021/05/13 09:30:11;;;;;;;4.03;1.40;;;17.80;59.90;;;;;;5092801;28;20449;-81
2021/05/13 09:32:38;;;;;;;5.15;1.55;;;17.80;60.00;;;;;;5092546;28;20074;-82
2021/05/13 09:35:08;;;;;;;3.67;1.50;;;17.80;60.20;;;;;;5093502;28;20036;-80
2021/05/13 09:37:43;;;;;;;2.55;1.50;;;17.70;60.70;;;;;;5092724;28;20032;-84
2021/05/13 09:40:10;;;;;;;10.32;2.13;;;17.70;60.90;;;;;;5093089;28;20035;-82
2021/05/13 09:42:37;;;;;;;5.43;1.60;;;17.70;60.40;;;;;;5093395;28;20201;-83
2021/05/13 09:45:06;;;;;;;3.63;1.60;;;17.50;61.00;;;;;;5082486;28;20028;-83
2021/05/13 09:47:33;;;;;;;3.17;1.83;;;17.50;62.10;;;;;;5092401;28;20048;-82
2021/05/13 09:50:08;;;;;;;4.95;1.80;;;17.40;62.00;;;;;;5093623;28;20039;-82
2021/05/13 09:52:46;;;;;;;3.85;1.67;;;17.40;61.70;;;;;;5092990;28;20039;-77
2021/05/13 09:55:16;;;;;;;2.28;1.52;;;17.40;61.30;;;;;;5092408;28;20472;-78
2021/05/13 09:57:51;;;;;;;2.47;1.60;;;17.40;61.40;;;;;;5093752;28;20030;-80
2021/05/13 10:00:42;;;;;;;2.90;1.50;;;17.30;61.30;;;;;;5073792;28;20076;-70
2021/05/13 10:03:14;;;;;;;6.38;1.85;;;17.30;61.10;;;;;;5072543;28;20028;-79
2021/05/13 10:05:42;;;;;;;2.38;1.50;;;17.30;61.30;;;;;;5053853;28;20040;-81
2021/05/13 10:08:08;;;;;;;5.43;1.58;;;17.30;61.10;;;;;;5072269;28;20029;-78
2021/05/13 10:10:35;;;;;;;4.63;1.23;;;17.40;60.60;;;;;;5065377;28;20033;-83
2021/05/13 10:13:01;;;;;;;2.00;1.13;;;17.70;61.20;;;;;;5072299;28;20046;-76
2021/05/13 10:15:27;;;;;;;5.78;1.40;;;18.00;60.30;;;;;;5069280;28;20499;-81
2021/05/13 10:17:57;;;;;;;2.90;1.25;;;18.40;56.70;;;;;;5054467;28;20470;-76
2021/05/13 10:20:24;;;;;;;3.17;1.60;;;18.50;56.00;;;;;;5070993;28;20037;-82
2021/05/13 10:22:50;;;;;;;5.13;1.30;;;18.50;54.90;;;;;;5072415;28;20032;-81
2021/05/13 10:25:30;;;;;;;2.33;1.17;;;18.40;56.10;;;;;;5070804;28;20021;-71
2021/05/13 10:28:04;;;;;;;4.75;1.90;;;18.30;56.60;;;;;;5072140;28;20031;-79
2021/05/13 10:30:34;;;;;;;3.50;1.30;;;18.30;56.10;;;;;;5071001;28;20048;-81
2021/05/13 10:33:13;;;;;;;3.35;1.15;;;18.30;56.30;;;;;;5054066;28;20024;-81
2021/05/13 10:35:40;;;;;;;4.22;1.23;;;18.20;54.80;;;;;;5053147;28;20024;-81
2021/05/13 10:38:12;;;;;;;5.82;1.17;;;18.30;53.00;;;;;;5047568;28;20386;-81
2021/05/13 10:43:12;;;;;;;3.50;1.02;;;18.30;54.60;;;;;;5076170;28;20044;-84
2021/05/13 10:45:42;;;;;;;6.55;1.70;;;18.20;53.40;;;;;;5071029;28;20020;-85
2021/05/13 10:48:07;;;;;;;;;;;18.20;53.90;;;;;;5054689;28;20111;-83
2021/05/13 10:50:45;;;;;;;1.83;1.10;;;18.30;54.00;;;;;;5074792;28;20351;-80
2021/05/13 10:53:39;;;;;;;5.57;1.35;;;18.20;54.80;;;;;;5068642;28;20082;-83
2021/05/13 10:56:23;;;;;;;5.93;1.40;;;18.10;55.00;;;;;;5066560;28;20029;-77
2021/05/13 10:59:01;;;;;;;3.88;1.23;;;18.10;55.30;;;;;;5071670;28;20518;-82
2021/05/13 11:01:43;;;;;;;4.35;1.50;;;18.20;55.20;;;;;;5053318;28;20110;-81
2021/05/13 11:04:24;;;;;;;6.47;1.23;;;18.20;55.90;;;;;;5064607;28;20094;-78
2021/05/13 11:06:53;;;;;;;6.45;1.50;;;18.40;56.10;;;;;;5053399;28;20032;-72
2021/05/13 11:09:37;;;;;;;2.57;0.90;;;18.40;55.80;;;;;;5052406;28;20028;-70
2021/05/13 11:12:09;;;;;;;5.47;1.35;;;18.20;55.00;;;;;;5069794;28;20267;-72
2021/05/13 11:20:26;;;;;;;2.10;1.00;;;18.00;58.30;;;;;;5071836;28;20036;-72
2021/05/13 11:23:05;;;;;;;3.85;1.20;;;18.10;58.80;;;;;;5070722;28;20021;-72
2021/05/13 11:25:33;;;;;;;2.65;1.17;;;18.30;59.00;;;;;;5070457;28;20419;-72
2021/05/13 11:28:00;;;;;;;3.28;0.98;;;18.50;57.60;;;;;;5070835;28;20036;-74
2021/05/13 11:30:28;;;;;;;1.42;1.10;;;18.60;57.10;;;;;;5070451;28;20047;-72
2021/05/13 11:32:54;;;;;;;4.05;1.27;;;18.70;56.90;;;;;;5057386;28;20536;-72
2021/05/13 11:35:23;;;;;;;4.18;1.30;;;18.80;56.70;;;;;;5051932;28;20089;-72
2021/05/13 11:37:54;;;;;;;3.22;1.20;;;18.90;57.10;;;;;;5047703;28;20472;-72
2021/05/13 11:40:26;;;;;;;6.50;1.27;;;18.80;56.20;;;;;;5065222;28;20029;-69
2021/05/13 11:43:12;;;;;;;;;;;18.70;57.10;;;;;;5066425;28;20031;-70
2021/05/13 11:45:39;;;;;;;3.85;1.20;;;18.60;56.40;;;;;;5063221;28;20736;-70
2021/05/13 11:48:28;;;;;;;2.85;1.25;;;18.40;55.90;;;;;;5051550;28;20052;-71
2021/05/13 11:50:57;;;;;;;1.88;0.60;;;18.40;56.00;;;;;;5063284;28;20040;-71
2021/05/13 11:53:24;;;;;;;1.70;0.90;;;18.30;54.10;;;;;;5046273;28;20023;-70
2021/05/13 11:55:51;;;;;;;1.67;0.65;;;18.10;53.50;;;;;;5072560;28;20036;-71
2021/05/13 11:58:46;;;;;;;1.52;0.75;;;18.00;53.90;;;;;;5051067;28;20055;-72
2021/05/13 12:01:34;;;;;;;1.25;0.75;;;17.80;55.90;;;;;;5053908;28;20051;-73
2021/05/13 12:04:10;;;;;;;0.75;0.50;;;17.70;54.50;;;;;;5072515;28;20131;-74
2021/05/13 12:06:55;;;;;;;2.58;0.68;;;17.70;54.80;;;;;;5054398;28;20461;-74
2021/05/13 12:09:26;;;;;;;2.33;1.00;;;17.70;55.50;;;;;;5052421;28;20039;-69
2021/05/13 12:11:56;;;;;;;4.68;0.80;;;17.70;55.80;;;;;;5070644;28;20031;-73
2021/05/13 12:14:25;;;;;;;;;;;17.70;55.30;;;;;;5053066;28;20461;-69
2021/05/13 12:16:55;;;;;;;6.35;0.70;;;17.90;54.50;;;;;;5073391;28;19908;-76
2021/05/13 12:19:21;;;;;;;;;;;17.90;55.70;;;;;;5071766;28;20034;-71
2021/05/13 12:21:56;;;;;;;1.85;0.60;;;17.90;54.30;;;;;;5054150;28;19928;-76
2021/05/13 12:24:29;;;;;;;2.80;0.52;;;18.10;52.70;;;;;;5069267;28;20025;-70
2021/05/13 12:26:55;;;;;;;2.50;1.30;;;18.20;53.60;;;;;;5069308;28;20020;-77
2021/05/13 12:29:21;;;;;;;3.22;0.63;;;18.30;52.70;;;;;;5054960;28;20452;-68
2021/05/13 12:31:47;;;;;;;1.60;0.60;;;18.30;54.70;;;;;;5054859;28;20115;-75
2021/05/13 12:34:37;;;;;;;1.90;0.63;;;18.30;52.20;;;;;;5074228;28;20150;-77
2021/05/13 12:37:04;;;;;;;2.83;0.80;;;18.30;53.00;;;;;;5054878;28;20028;-75
2021/05/13 12:39:38;;;;;;;3.20;0.60;;;18.40;51.40;;;;;;5036303;28;20375;-72
2021/05/13 12:42:21;;;;;;;1.45;0.73;;;18.40;52.30;;;;;;5069746;28;20036;-70
2021/05/13 12:44:47;;;;;;;2.13;0.68;;;18.50;50.10;;;;;;5052691;28;20085;-71
2021/05/13 12:47:13;;;;;;;2.50;0.52;;;18.70;49.80;;;;;;5055013;28;20127;-70
2021/05/13 12:49:39;;;;;;;0.85;0.60;;;19.10;49.50;;;;;;5071522;28;20028;-71
2021/05/13 12:52:14;;;;;;;0.35;0.22;;;19.50;48.00;;;;;;5073105;28;20139;-72
2021/05/13 12:54:41;;;;;;;2.03;0.60;;;19.80;47.40;;;;;;5069638;28;20024;-71
2021/05/13 12:57:18;;;;;;;0.55;0.40;;;20.00;46.40;;;;;;5072309;28;20059;-71
2021/05/13 12:59:56;;;;;;;0.98;0.50;;;20.10;47.20;;;;;;5074579;28;20102;-70
2021/05/13 13:02:28;;;;;;;3.22;0.60;;;20.20;45.80;;;;;;5089604;28;20036;-73
2021/05/13 13:04:55;;;;;;;1.77;0.75;;;20.10;46.40;;;;;;5088918;28;20024;-71
2021/05/13 13:07:43;;;;;;;2.42;0.60;;;20.00;46.60;;;;;;5089411;28;20031;-73
2021/05/13 13:10:33;;;;;;;1.27;0.52;;;19.90;47.30;;;;;;5087620;28;20736;-73
2021/05/13 13:13:09;;;;;;;1.17;0.57;;;19.70;47.90;;;;;;5089011;28;20483;-73
2021/05/13 13:15:51;;;;;;;5.60;0.50;;;19.70;47.60;;;;;;5088882;28;20062;-71